createdAt,value
2022-10-04T00:01:47.038Z,10.73
2022-10-04T00:04:19.028Z,10.13
2022-10-04T00:06:54.631Z,8.68
2022-10-04T00:09:24.391Z,11.75
2022-10-04T00:11:54.696Z,11.48
2022-10-04T00:14:26.464Z,11.32
2022-10-04T00:16:54.804Z,9.30
2022-10-04T00:19:38.309Z,11.02
2022-10-04T00:22:19.098Z,10.23
2022-10-04T00:25:20.279Z,10.57
2022-10-04T00:28:24.589Z,11.40
2022-10-04T00:31:15.897Z,10.70
2022-10-04T00:33:44.297Z,10.73
2022-10-04T00:36:47.409Z,12.60
2022-10-04T00:39:26.387Z,14.10
2022-10-04T00:42:19.774Z,12.48
2022-10-04T00:44:52.018Z,14.32
2022-10-04T00:47:31.510Z,11.35
2022-10-04T00:50:07.508Z,12.75
2022-10-04T00:52:40.764Z,11.57
2022-10-04T00:55:10.869Z,13.35
2022-10-04T00:57:42.248Z,10.18
2022-10-04T01:00:13.248Z,11.95
2022-10-04T01:02:51.292Z,12.30
2022-10-04T01:05:21.400Z,8.82
2022-10-04T01:07:52.987Z,9.23
2022-10-04T01:10:32.935Z,13.02
2022-10-04T01:13:08.058Z,9.77
2022-10-04T01:15:43.287Z,13.65
2022-10-04T01:18:14.820Z,12.48
2022-10-04T01:20:52.892Z,10.02
2022-10-04T01:23:36.857Z,11.43
2022-10-04T01:26:05.649Z,10.10
2022-10-04T01:28:33.938Z,11.52
2022-10-04T01:31:01.117Z,14.73
2022-10-04T01:33:28.178Z,14.07
2022-10-04T01:35:55.171Z,17.30
2022-10-04T01:38:21.851Z,23.90
2022-10-04T01:40:54.895Z,21.95
2022-10-04T01:43:27.960Z,20.30
2022-10-04T01:46:01.228Z,20.07
2022-10-04T01:48:33.329Z,16.10
2022-10-04T01:51:05.657Z,16.35
2022-10-04T01:53:40.649Z,14.52
2022-10-04T01:56:12.951Z,18.23
2022-10-04T01:58:43.144Z,12.88
2022-10-04T02:01:13.705Z,15.48
2022-10-04T02:03:43.879Z,11.98
2022-10-04T02:06:12.836Z,11.23
2022-10-04T02:08:49.645Z,22.27
2022-10-04T02:11:21.473Z,14.48
2022-10-04T02:13:51.663Z,15.80
2022-10-04T02:16:22.122Z,15.98
2022-10-04T02:18:51.363Z,12.10
2022-10-04T02:21:19.908Z,11.10
2022-10-04T02:23:47.729Z,9.23
2022-10-04T02:26:14.588Z,15.45
2022-10-04T02:28:42.892Z,12.88
2022-10-04T02:31:28.652Z,13.05
2022-10-04T02:33:58.564Z,13.52
2022-10-04T02:36:28.639Z,14.45
2022-10-04T02:39:02.155Z,17.73
2022-10-04T02:41:33.910Z,15.25
2022-10-04T02:44:10.136Z,16.17
2022-10-04T02:46:46.785Z,19.25
2022-10-04T02:49:22.911Z,15.75
2022-10-04T02:51:54.492Z,15.77
2022-10-04T02:54:28.390Z,16.50
2022-10-04T02:59:24.177Z,14.77
2022-10-04T03:01:53.695Z,17.48
2022-10-04T03:04:23.471Z,13.02
2022-10-04T03:06:51.637Z,13.02
2022-10-04T03:09:25.029Z,12.30
2022-10-04T03:11:54.689Z,13.77
2022-10-04T03:14:25.353Z,11.43
2022-10-04T03:16:55.661Z,13.32
2022-10-04T03:19:24.827Z,14.65
2022-10-04T03:21:55.222Z,13.50
2022-10-04T03:24:28.433Z,11.27
2022-10-04T03:26:57.126Z,10.98
2022-10-04T03:29:28.303Z,14.32
2022-10-04T03:31:59.753Z,10.75
2022-10-04T03:34:32.025Z,8.35
2022-10-04T03:37:00.968Z,13.65
2022-10-04T03:39:32.071Z,13.20
2022-10-04T03:41:59.859Z,11.77
2022-10-04T03:44:27.987Z,10.93
2022-10-04T03:46:54.968Z,13.20
2022-10-04T03:49:30.275Z,10.27
2022-10-04T03:51:58.835Z,10.02
2022-10-04T03:54:28.076Z,12.20
2022-10-04T03:56:56.885Z,9.20
2022-10-04T03:59:26.371Z,12.35
2022-10-04T04:02:06.733Z,10.02
2022-10-04T04:04:43.256Z,14.88
2022-10-04T04:07:14.457Z,8.88
2022-10-04T04:09:45.648Z,8.68
2022-10-04T04:12:18.129Z,11.48
2022-10-04T04:14:48.763Z,10.27
2022-10-04T04:17:35.946Z,12.88
2022-10-04T04:20:07.976Z,10.15
2022-10-04T04:22:36.382Z,11.27
2022-10-04T04:25:08.314Z,12.88
2022-10-04T04:27:40.033Z,11.80
2022-10-04T04:30:08.980Z,13.70
2022-10-04T04:32:41.288Z,11.57
2022-10-04T04:35:22.007Z,9.65
2022-10-04T04:38:04.475Z,9.00
2022-10-04T04:40:31.450Z,11.88
2022-10-04T04:43:00.204Z,11.80
2022-10-04T04:45:30.914Z,9.88
2022-10-04T04:48:01.287Z,9.82
2022-10-04T04:50:31.718Z,9.80
2022-10-04T04:53:01.324Z,9.05
2022-10-04T04:55:44.680Z,10.23
2022-10-04T04:58:22.192Z,13.02
2022-10-04T05:00:57.211Z,13.85
2022-10-04T05:03:26.333Z,11.48
2022-10-04T05:05:54.821Z,11.75
2022-10-04T05:08:24.292Z,11.80
2022-10-04T05:11:01.217Z,13.27
2022-10-04T05:13:34.262Z,15.10
2022-10-04T05:16:01.979Z,13.80
2022-10-04T05:18:32.181Z,11.10
2022-10-04T05:21:04.932Z,11.63
2022-10-04T05:23:32.492Z,14.35
2022-10-04T05:26:02.243Z,11.00
2022-10-04T05:28:29.791Z,13.95
2022-10-04T05:31:21.724Z,14.60
2022-10-04T05:33:51.844Z,15.52
2022-10-04T05:36:50.906Z,12.15
2022-10-04T05:39:25.222Z,12.98
2022-10-04T05:42:01.493Z,15.70
2022-10-04T05:44:31.719Z,11.75
2022-10-04T05:47:01.212Z,13.18
2022-10-04T05:49:34.689Z,11.20
2022-10-04T05:52:04.196Z,12.93
2022-10-04T05:54:35.649Z,12.27
2022-10-04T05:57:15.911Z,9.07
2022-10-04T06:00:01.907Z,10.55
2022-10-04T06:02:46.712Z,13.75
2022-10-04T06:05:23.578Z,13.55
2022-10-04T06:08:00.354Z,18.08
2022-10-04T06:10:51.354Z,13.90
2022-10-04T06:13:39.258Z,13.73
2022-10-04T06:16:17.728Z,11.55
2022-10-04T06:19:13.643Z,11.93
2022-10-04T06:21:56.164Z,17.17
2022-10-04T06:24:27.536Z,9.55
2022-10-04T06:26:59.997Z,13.35
2022-10-04T06:29:32.536Z,12.25
2022-10-04T06:32:28.122Z,10.05
2022-10-04T06:35:10.999Z,13.00
2022-10-04T06:38:06.715Z,14.98
2022-10-04T06:40:49.832Z,13.90
2022-10-04T06:43:36.689Z,16.42
2022-10-04T06:46:15.492Z,16.45
2022-10-04T06:49:07.638Z,13.45
2022-10-04T06:51:53.441Z,14.90
2022-10-04T06:54:38.787Z,15.55
2022-10-04T06:57:34.729Z,14.98
2022-10-04T07:00:09.865Z,13.57
2022-10-04T07:02:44.399Z,17.40
2022-10-04T07:05:30.227Z,15.43
2022-10-04T07:08:06.797Z,19.23
2022-10-04T07:10:41.085Z,16.05
2022-10-04T07:13:31.593Z,16.75
2022-10-04T07:16:04.243Z,16.25
2022-10-04T07:18:36.586Z,17.35
2022-10-04T07:21:08.612Z,17.38
2022-10-04T07:23:43.689Z,21.98
2022-10-04T07:26:22.794Z,15.93
2022-10-04T07:29:09.578Z,20.15
2022-10-04T07:31:38.570Z,13.70
2022-10-04T07:34:15.577Z,14.55
2022-10-04T07:36:49.285Z,15.30
2022-10-04T07:39:20.032Z,16.45
2022-10-04T07:41:53.569Z,19.40
2022-10-04T07:44:34.561Z,18.77
2022-10-04T07:47:06.244Z,18.90
2022-10-04T07:49:38.768Z,15.43
2022-10-04T07:52:51.106Z,16.67
2022-10-04T07:55:24.006Z,16.20
2022-10-04T07:58:07.440Z,15.32
2022-10-04T08:00:48.791Z,17.70
2022-10-04T08:03:41.820Z,15.75
2022-10-04T08:06:17.060Z,13.32
2022-10-04T08:09:16.972Z,15.27
2022-10-04T08:11:51.203Z,18.45
2022-10-04T08:14:28.165Z,16.35
2022-10-04T08:17:10.799Z,16.02
2022-10-04T08:19:51.561Z,15.55
2022-10-04T08:22:27.592Z,13.38
2022-10-04T08:25:03.873Z,12.32
2022-10-04T08:27:39.720Z,13.05
2022-10-04T08:30:16.278Z,13.63
2022-10-04T08:33:03.873Z,13.27
2022-10-04T08:35:36.601Z,11.70
2022-10-04T08:38:34.939Z,8.90
2022-10-04T08:41:34.685Z,9.48
2022-10-04T08:44:49.848Z,10.98
2022-10-04T08:50:43.125Z,10.15
2022-10-04T08:53:43.770Z,7.38
2022-10-04T08:56:19.297Z,9.90
2022-10-04T08:59:17.594Z,8.27
2022-10-04T09:02:21.030Z,7.28
2022-10-04T09:05:16.701Z,9.77
2022-10-04T14:36:40.807Z,5.40
2022-10-04T14:39:36.010Z,5.63
2022-10-04T14:42:24.568Z,5.88
2022-10-04T14:45:15.413Z,4.82
2022-10-04T14:48:20.355Z,6.65
2022-10-04T14:51:01.229Z,6.43
2022-10-04T14:53:37.194Z,6.00
2022-10-04T14:56:45.590Z,6.13
2022-10-04T14:59:26.118Z,4.88
2022-10-04T15:02:19.944Z,4.95
2022-10-04T15:05:12.872Z,5.65
2022-10-04T15:07:46.906Z,5.93
2022-10-04T15:10:20.191Z,5.75
2022-10-04T15:13:11.115Z,5.07
2022-10-04T15:15:57.239Z,8.32
2022-10-04T15:18:37.808Z,5.28
2022-10-04T15:21:20.397Z,4.65
2022-10-04T15:23:54.706Z,8.38
2022-10-04T15:26:54.724Z,4.57
2022-10-04T15:29:28.132Z,4.35
2022-10-04T15:32:07.361Z,5.70
2022-10-04T15:34:44.173Z,6.72
2022-10-04T15:37:20.297Z,5.35
2022-10-04T15:40:18.964Z,4.65
2022-10-04T15:43:15.289Z,5.50
2022-10-04T15:46:41.563Z,5.25
2022-10-04T15:49:24.962Z,3.53
2022-10-04T15:52:14.454Z,5.63
2022-10-04T15:54:52.349Z,6.18
2022-10-04T15:57:32.173Z,5.10
2022-10-04T16:00:08.516Z,5.00
2022-10-04T16:02:55.672Z,4.82
2022-10-04T16:05:27.699Z,3.40
2022-10-04T16:08:22.502Z,7.65
2022-10-04T16:11:25.009Z,4.93
2022-10-04T16:14:06.837Z,4.43
2022-10-04T16:17:02.642Z,4.18
2022-10-04T16:19:43.879Z,4.78
2022-10-04T16:22:16.007Z,4.20
2022-10-04T16:24:51.385Z,4.07
2022-10-04T16:27:43.033Z,3.80
2022-10-04T16:30:27.832Z,4.50
2022-10-04T16:33:25.900Z,6.57
2022-10-04T16:36:08.643Z,3.80
2022-10-04T16:39:04.033Z,5.25
2022-10-04T16:41:37.382Z,7.05
2022-10-04T16:44:10.521Z,3.63
2022-10-04T16:46:45.077Z,6.38
2022-10-04T16:49:24.869Z,5.80
2022-10-04T16:52:12.368Z,4.93
2022-10-04T16:55:10.198Z,4.13
2022-10-04T16:57:38.218Z,6.57
2022-10-04T17:00:33.739Z,5.03
2022-10-04T17:03:15.107Z,4.93
2022-10-04T17:05:56.601Z,6.95
2022-10-04T17:08:43.298Z,9.57
2022-10-04T17:11:58.360Z,11.02
2022-10-04T17:17:21.775Z,6.68
2022-10-04T17:19:52.964Z,6.03
2022-10-04T17:22:33.562Z,6.35
2022-10-04T17:25:15.541Z,5.57
2022-10-04T17:27:49.795Z,7.40
2022-10-04T17:30:21.582Z,15.30
2022-10-04T17:33:18.103Z,29.40
2022-10-04T17:36:50.359Z,5.88
2022-10-04T17:39:33.411Z,5.80
2022-10-04T17:42:08.278Z,6.30
2022-10-04T17:44:43.879Z,6.38
2022-10-04T17:47:14.836Z,8.10
2022-10-04T17:50:04.389Z,7.82
2022-10-04T17:52:58.875Z,10.60
2022-10-04T17:57:54.259Z,9.20
2022-10-04T18:00:23.126Z,8.05
2022-10-04T18:03:04.660Z,9.45
2022-10-04T18:05:34.586Z,11.40
2022-10-04T18:08:04.557Z,9.00
2022-10-04T18:10:33.036Z,9.38
2022-10-04T18:13:01.598Z,8.57
2022-10-04T18:15:30.628Z,8.27
2022-10-04T18:18:07.506Z,8.48
2022-10-04T18:20:35.621Z,11.00
2022-10-04T18:23:15.040Z,8.52
2022-10-04T18:25:43.000Z,13.60
2022-10-04T18:28:13.123Z,11.52
2022-10-04T18:30:53.822Z,12.80
2022-10-04T18:33:26.109Z,10.82
2022-10-04T18:36:01.796Z,10.48
2022-10-04T18:38:31.750Z,11.45
2022-10-04T18:41:01.530Z,12.27
2022-10-04T18:43:30.739Z,10.50
2022-10-04T18:46:02.945Z,8.98
2022-10-04T18:48:37.810Z,10.07
2022-10-04T18:51:16.607Z,9.43
2022-10-04T18:53:46.876Z,9.65
2022-10-04T18:56:14.420Z,16.88
2022-10-04T18:59:08.852Z,9.68
2022-10-04T19:02:04.358Z,12.38
2022-10-04T19:04:38.995Z,13.30
2022-10-04T19:07:09.977Z,11.30
2022-10-04T19:09:47.444Z,15.65
2022-10-04T19:12:17.016Z,15.10
2022-10-04T19:14:48.031Z,12.65
2022-10-04T19:17:19.506Z,16.08
2022-10-04T19:19:51.164Z,13.55
2022-10-04T19:22:23.578Z,12.85
2022-10-04T19:25:07.782Z,11.38
2022-10-04T19:30:11.842Z,13.27
2022-10-04T19:32:44.910Z,14.48
2022-10-04T19:35:18.165Z,14.07
2022-10-04T19:37:48.875Z,18.20
2022-10-04T19:40:21.295Z,13.68
2022-10-04T19:42:53.349Z,21.88
2022-10-04T19:45:25.686Z,22.35
2022-10-04T19:47:57.140Z,20.60
2022-10-04T19:50:27.414Z,22.23
2022-10-04T19:52:58.040Z,13.00
2022-10-04T19:55:30.451Z,12.68
2022-10-04T19:58:02.296Z,11.00
2022-10-04T20:00:30.283Z,11.18
2022-10-04T20:02:58.304Z,12.13
2022-10-04T20:05:26.686Z,9.77
2022-10-04T20:08:01.719Z,10.18
2022-10-04T20:10:33.978Z,10.18
2022-10-04T20:13:22.504Z,10.80
2022-10-04T20:15:50.600Z,14.95
2022-10-04T20:18:35.969Z,20.63
2022-10-04T20:21:04.766Z,26.60
2022-10-04T20:23:59.336Z,17.38
2022-10-04T20:29:33.036Z,15.32
2022-10-04T20:32:01.809Z,11.20
2022-10-04T20:34:35.754Z,9.43
2022-10-04T20:39:59.328Z,7.68
2022-10-04T20:42:36.321Z,8.18
2022-10-04T20:45:06.339Z,10.07
2022-10-04T20:47:42.872Z,11.05
2022-10-04T20:50:31.293Z,7.57
2022-10-04T20:52:59.769Z,8.65
2022-10-04T20:55:29.724Z,12.10
2022-10-04T20:57:58.024Z,13.73
2022-10-04T21:00:26.470Z,12.13
2022-10-04T21:03:14.338Z,10.43
2022-10-04T21:05:40.951Z,12.45
2022-10-04T21:08:28.630Z,10.30
2022-10-04T21:11:04.437Z,9.80
2022-10-04T21:13:45.406Z,9.85
2022-10-04T21:16:33.460Z,11.68
2022-10-04T21:19:15.913Z,10.68
2022-10-04T21:21:51.823Z,9.30
2022-10-04T21:24:29.560Z,12.93
2022-10-04T21:26:57.045Z,11.20
2022-10-04T21:29:23.665Z,12.48
2022-10-04T21:31:51.049Z,9.30
2022-10-04T21:34:34.788Z,10.30
2022-10-04T21:37:05.979Z,10.13
2022-10-04T21:39:32.745Z,10.40
2022-10-04T21:41:59.730Z,10.10
2022-10-04T21:44:26.434Z,10.20
2022-10-04T21:46:52.942Z,125.88
2022-10-04T21:49:19.725Z,175.00
2022-10-04T21:51:46.997Z,102.60
2022-10-04T21:54:15.338Z,85.28
2022-10-04T21:56:42.546Z,69.53
2022-10-04T21:59:09.442Z,61.90
2022-10-04T22:01:36.160Z,42.67
2022-10-04T22:04:02.734Z,39.35
2022-10-04T22:06:29.407Z,33.00
2022-10-04T22:08:56.000Z,38.35
2022-10-04T22:11:23.978Z,45.17
2022-10-04T22:13:51.170Z,49.33
2022-10-04T22:16:18.302Z,42.85
2022-10-04T22:18:44.858Z,53.50
2022-10-04T22:21:11.431Z,40.70
2022-10-04T22:23:39.136Z,40.85
2022-10-04T22:26:09.516Z,45.83
2022-10-04T22:28:38.002Z,52.45
2022-10-04T22:31:09.987Z,25.75
2022-10-04T22:33:37.239Z,29.10
2022-10-04T22:36:11.740Z,20.55
2022-10-04T22:38:38.398Z,20.52
2022-10-04T22:41:08.712Z,15.32
2022-10-04T22:43:35.171Z,14.13
2022-10-04T22:46:03.146Z,11.90
2022-10-04T22:48:29.633Z,11.75
2022-10-04T22:50:56.759Z,9.80
2022-10-04T22:53:23.508Z,11.52
2022-10-04T22:55:50.723Z,22.63
2022-10-04T22:58:17.637Z,14.73
2022-10-04T23:00:44.765Z,22.80
2022-10-04T23:03:21.594Z,23.27
2022-10-04T23:05:48.131Z,16.85
2022-10-04T23:08:15.012Z,15.98
2022-10-04T23:10:41.508Z,14.73
2022-10-04T23:13:07.943Z,11.82
2022-10-04T23:15:34.798Z,12.27
2022-10-04T23:18:01.382Z,16.52
2022-10-04T23:20:29.724Z,16.90
2022-10-04T23:22:59.553Z,14.02
2022-10-04T23:25:27.133Z,14.80
2022-10-04T23:27:55.084Z,9.40
2022-10-04T23:30:21.842Z,10.15
2022-10-04T23:32:49.078Z,9.60
2022-10-04T23:35:17.232Z,8.48
2022-10-04T23:37:45.446Z,11.07
2022-10-04T23:40:12.724Z,10.93
2022-10-04T23:42:39.319Z,10.00
2022-10-04T23:45:11.515Z,19.33
2022-10-04T23:47:38.006Z,20.00
2022-10-04T23:50:15.013Z,19.80
2022-10-04T23:52:41.515Z,14.38
2022-10-04T23:55:16.085Z,11.13
2022-10-04T23:57:42.606Z,10.02
